Avoca, Texas
Current Conditions -  °F | °C
As of 7:52 PM on Friday 24 Oct 2014 (Local Time) from KABI Reporting Station
Clear Clear  
Wind Chill: 76°   Ceiling: Unl
Heat Index: 76°   Visibility: 10mi
Dew Point: 53°   Wind: 8mph
Humidity: 45%   Direction: 170°S
Pressure: 30.1"   Gusts: NA
Location:  32.87°N, 99.72°W
Report Text: KABI 250052Z 17007KT 10SM CLR 24/12 A3010 RMK AO2 SLP173 T02440117 $
Loading
Personal Weather Stations






























Interactive Weather Map New forecast layout! Learn more

10-Day Weather Forecast

Advertisements
Track Severe Weather on mobile